createdAt,value
2022-11-12T00:01:22.152Z,101651.88
2022-11-12T00:03:52.032Z,101658.38
2022-11-12T00:06:20.211Z,101655.91
2022-11-12T00:08:48.327Z,101656.91
2022-11-12T00:11:17.114Z,101658.75
2022-11-12T00:13:45.574Z,101659.56
2022-11-12T00:16:13.602Z,101667.53
2022-11-12T00:18:41.835Z,101655.91
2022-11-12T00:21:11.231Z,101648.56
2022-11-12T00:23:39.474Z,101659.84
2022-11-12T00:26:07.717Z,101646.56
2022-11-12T00:28:38.149Z,101649.88
2022-11-12T00:31:11.978Z,101647.84
2022-11-12T00:33:44.160Z,101645.00
2022-11-12T00:36:14.236Z,101651.16
2022-11-12T00:38:42.407Z,101653.81
2022-11-12T00:41:10.565Z,101647.84
2022-11-12T00:43:38.754Z,101651.97
2022-11-12T00:46:06.870Z,101654.66
2022-11-12T00:48:35.087Z,101655.28
2022-11-12T00:51:04.702Z,101652.16
2022-11-12T00:53:34.498Z,101662.16
2022-11-12T00:56:04.279Z,101656.00
2022-11-12T00:58:33.055Z,101659.69
2022-11-12T01:01:07.194Z,101658.19
2022-11-12T01:03:35.739Z,101651.25
2022-11-12T01:06:05.079Z,101658.19
2022-11-12T01:08:35.026Z,101658.19
2022-11-12T01:11:08.510Z,101650.22
2022-11-12T01:13:42.840Z,101654.53
2022-11-12T01:16:14.444Z,101643.41
2022-11-12T01:18:42.861Z,101655.06
2022-11-12T01:21:11.250Z,101641.78
2022-11-12T01:23:43.073Z,101632.97
2022-11-12T01:26:13.358Z,101634.19
2022-11-12T01:28:42.148Z,101644.16
2022-11-12T01:31:15.746Z,101635.16
2022-11-12T01:33:45.159Z,101630.88
2022-11-12T01:36:14.398Z,101632.91
2022-11-12T01:38:45.579Z,101625.56
2022-11-12T01:41:16.803Z,101625.56
2022-11-12T01:43:45.289Z,101630.50
2022-11-12T01:46:18.921Z,101619.88
2022-11-12T01:48:52.143Z,101631.81
2022-11-12T01:51:21.868Z,101629.78
2022-11-12T01:53:55.927Z,101631.88
2022-11-12T01:56:25.259Z,101625.38
2022-11-12T01:58:57.816Z,101630.97
2022-11-12T02:01:26.801Z,101628.94
2022-11-12T02:03:55.301Z,101631.81
2022-11-12T02:06:25.100Z,101634.28
2022-11-12T02:08:54.935Z,101635.75
2022-11-12T02:11:23.400Z,101638.22
2022-11-12T02:13:58.735Z,101635.19
2022-11-12T02:16:30.419Z,101636.28
2022-11-12T02:18:58.721Z,101636.75
2022-11-12T02:21:29.202Z,101642.91
2022-11-12T02:24:06.318Z,101635.47
2022-11-12T02:26:36.828Z,101640.13
2022-11-12T02:29:05.284Z,101638.28
2022-11-12T02:31:33.475Z,101636.50
2022-11-12T02:34:01.669Z,101643.81
2022-11-12T02:36:31.764Z,101641.50
2022-11-12T02:39:00.022Z,101652.69
2022-11-12T02:41:28.571Z,101661.25
2022-11-12T02:43:56.758Z,101658.59
2022-11-12T02:46:25.302Z,101677.38
2022-11-12T02:48:53.800Z,101681.69
2022-11-12T02:51:21.957Z,101674.91
2022-11-12T02:53:51.420Z,101669.22
2022-11-12T02:56:19.608Z,101660.59
2022-11-12T02:58:47.705Z,101671.56
2022-11-12T03:01:15.940Z,101660.59
2022-11-12T03:03:44.130Z,101662.34
2022-11-12T03:06:12.327Z,101660.84
2022-11-12T03:08:40.417Z,101672.31
2022-11-12T03:11:12.615Z,101672.22
2022-11-12T03:13:41.278Z,101675.03
2022-11-12T03:16:10.051Z,101671.28
2022-11-12T03:18:38.628Z,101670.81
2022-11-12T03:21:07.355Z,101670.09
2022-11-12T03:23:35.576Z,101665.31
2022-11-12T03:26:05.031Z,101658.69
2022-11-12T03:28:34.665Z,101651.25
2022-11-12T03:31:03.247Z,101655.63
2022-11-12T03:33:31.583Z,101664.13
2022-11-12T03:35:59.839Z,101667.81
2022-11-12T03:38:28.417Z,101670.47
2022-11-12T03:40:56.808Z,101660.66
2022-11-12T03:43:25.100Z,101665.81
2022-11-12T03:45:54.605Z,101660.84
2022-11-12T03:48:23.030Z,101646.34
2022-11-12T03:50:51.347Z,101648.19
2022-11-12T03:53:19.509Z,101647.38
2022-11-12T03:55:47.653Z,101651.50
2022-11-12T03:58:15.899Z,101643.34
2022-11-12T04:00:44.138Z,101642.72
2022-11-12T04:03:13.718Z,101645.72
2022-11-12T04:05:59.316Z,101659.16
2022-11-12T04:08:39.826Z,101652.69
2022-11-12T04:11:12.627Z,101655.19
2022-11-12T04:13:42.214Z,101681.09
2022-11-12T04:16:35.236Z,101682.72
2022-11-12T04:19:23.410Z,101678.91
2022-11-12T04:21:55.861Z,101684.56
2022-11-12T04:24:44.155Z,101680.56
2022-11-12T04:27:15.694Z,101694.03
2022-11-12T04:30:01.240Z,101688.72
2022-11-12T04:32:30.260Z,101682.38
2022-11-12T04:35:00.479Z,101689.72
2022-11-12T04:37:44.576Z,101689.53
2022-11-12T04:40:32.185Z,101686.69
2022-11-12T04:43:32.595Z,101693.84
2022-11-12T04:46:02.613Z,101695.66
2022-11-12T04:48:31.161Z,101702.63
2022-11-12T04:51:03.454Z,101701.47
2022-11-12T04:53:32.271Z,101704.13
2022-11-12T04:56:00.539Z,101700.25
2022-11-12T04:58:28.999Z,101697.44
2022-11-12T05:00:57.505Z,101706.25
2022-11-12T05:03:25.741Z,101702.75
2022-11-12T05:05:53.813Z,101701.56
2022-11-12T05:08:23.444Z,101710.53
2022-11-12T05:10:51.726Z,101706.06
2022-11-12T05:13:19.921Z,101690.94
2022-11-12T05:15:48.065Z,101705.22
2022-11-12T05:18:16.243Z,101703.59
2022-11-12T05:20:44.434Z,101709.44
2022-11-12T05:23:12.562Z,101702.81
2022-11-12T05:25:42.219Z,101713.06
2022-11-12T05:28:10.353Z,101705.66
2022-11-12T05:30:38.632Z,101704.81
2022-11-12T05:33:06.771Z,101706.31
2022-11-12T05:35:34.960Z,101699.00
2022-11-12T05:38:03.076Z,101704.34
2022-11-12T05:40:31.325Z,101702.00
2022-11-12T05:43:00.880Z,101707.00
2022-11-12T05:45:29.033Z,101697.34
2022-11-12T05:47:57.172Z,101707.97
2022-11-12T05:50:28.174Z,101705.66
2022-11-12T05:53:02.783Z,101703.00
2022-11-12T05:55:36.795Z,101696.19
2022-11-12T05:58:07.987Z,101697.72
2022-11-12T06:00:39.164Z,101701.72
2022-11-12T06:03:07.346Z,101695.75
2022-11-12T06:05:35.903Z,101695.94
2022-11-12T06:08:05.553Z,101694.09
2022-11-12T06:10:34.067Z,101691.63
2022-11-12T06:13:02.446Z,101687.47
2022-11-12T06:15:35.201Z,101687.03
2022-11-12T06:18:07.289Z,101690.50
2022-11-12T06:20:36.120Z,101687.19
2022-11-12T06:23:04.289Z,101682.25
2022-11-12T06:25:32.699Z,101687.72
2022-11-12T06:28:00.921Z,101685.53
2022-11-12T06:30:29.015Z,101682.53
2022-11-12T06:32:58.655Z,101675.41
2022-11-12T06:35:26.947Z,101676.41
2022-11-12T06:37:55.483Z,101685.66
2022-11-12T06:40:23.615Z,101676.56
2022-11-12T06:42:58.260Z,101674.56
2022-11-12T06:45:26.615Z,101678.88
2022-11-12T06:48:00.609Z,101686.22
2022-11-12T06:50:28.754Z,101682.06
2022-11-12T06:52:59.845Z,101670.97
2022-11-12T06:55:28.015Z,101682.59
2022-11-12T06:57:56.327Z,101685.78
2022-11-12T07:00:24.702Z,101693.09
2022-11-12T07:02:52.933Z,101682.53
2022-11-12T07:05:22.466Z,101684.34
2022-11-12T07:07:50.604Z,101680.69
2022-11-12T07:10:18.879Z,101684.50
2022-11-12T07:12:53.028Z,101682.22
2022-11-12T07:15:21.655Z,101673.59
2022-11-12T07:17:49.794Z,101683.22
2022-11-12T07:20:18.073Z,101673.66
2022-11-12T07:22:47.593Z,101667.97
2022-11-12T07:25:15.881Z,101658.38
2022-11-12T07:27:44.141Z,101673.16
2022-11-12T07:30:13.308Z,101669.50
2022-11-12T07:32:45.880Z,101673.34
2022-11-12T07:35:16.749Z,101687.13
2022-11-12T07:37:44.836Z,101683.28
2022-11-12T07:40:15.396Z,101692.59
2022-11-12T07:42:43.601Z,101691.78
2022-11-12T07:45:12.134Z,101686.13
2022-11-12T07:47:40.255Z,101691.44
2022-11-12T07:50:09.011Z,101700.56
2022-11-12T07:52:37.201Z,101696.06
2022-11-12T07:55:07.080Z,101704.03
2022-11-12T07:57:36.723Z,101705.22
2022-11-12T08:00:05.952Z,101703.72
2022-11-12T08:02:34.246Z,101706.75
2022-11-12T08:05:02.508Z,101720.03
2022-11-12T08:07:30.656Z,101728.31
2022-11-12T08:09:59.136Z,101734.94
2022-11-12T08:12:27.326Z,101736.59
2022-11-12T08:14:56.894Z,101737.44
2022-11-12T08:17:25.155Z,101731.28
2022-11-12T08:19:55.463Z,101741.75
2022-11-12T08:22:23.905Z,101744.06
2022-11-12T08:24:52.255Z,101744.22
2022-11-12T08:27:20.557Z,101742.59
2022-11-12T08:29:48.756Z,101749.53
2022-11-12T08:32:18.252Z,101753.66
2022-11-12T08:34:46.795Z,101751.69
2022-11-12T08:37:15.061Z,101761.47
2022-11-12T08:39:43.265Z,101765.47
2022-11-12T08:42:11.573Z,101762.31
2022-11-12T08:44:39.862Z,101769.13
2022-11-12T08:47:08.059Z,101778.41
2022-11-12T08:49:37.744Z,101778.75
2022-11-12T08:52:06.197Z,101772.91
2022-11-12T08:54:34.223Z,101795.66
2022-11-12T08:57:02.428Z,101784.53
2022-11-12T08:59:30.631Z,101784.34
2022-11-12T09:01:58.844Z,101793.00
2022-11-12T09:04:27.204Z,101790.03
2022-11-12T09:06:56.792Z,101794.34
2022-11-12T09:09:24.908Z,101797.78
2022-11-12T09:11:53.052Z,101794.97
2022-11-12T09:14:21.361Z,101778.72
2022-11-12T09:16:49.662Z,101792.94
2022-11-12T09:19:17.698Z,101787.81
2022-11-12T09:21:45.796Z,101789.97
2022-11-12T09:24:15.644Z,101783.97
2022-11-12T09:26:43.836Z,101787.63
2022-11-12T09:29:12.142Z,101791.09
2022-11-12T09:31:40.284Z,101788.97
2022-11-12T09:34:08.505Z,101804.06
2022-11-12T09:36:39.806Z,101795.44
2022-11-12T09:39:08.369Z,101799.88
2022-11-12T09:41:39.953Z,101798.91
2022-11-12T09:44:12.325Z,101805.38
2022-11-12T09:46:45.996Z,101811.50
2022-11-12T09:49:17.500Z,101823.94
2022-11-12T09:51:49.042Z,101820.97
2022-11-12T09:54:24.058Z,101815.66
2022-11-12T09:56:55.058Z,101817.63
2022-11-12T09:59:25.173Z,101818.28
2022-11-12T10:02:17.326Z,101817.63
2022-11-12T10:04:56.807Z,101819.44
2022-11-12T10:07:38.799Z,101821.72
2022-11-12T10:10:14.666Z,101824.06
2022-11-12T10:13:02.289Z,101824.88
2022-11-12T10:16:05.970Z,101821.72
2022-11-12T10:18:47.934Z,101828.72
2022-11-12T10:21:25.932Z,101828.97
2022-11-12T10:23:54.829Z,101830.28
2022-11-12T10:26:25.855Z,101831.94
2022-11-12T10:29:04.492Z,101825.97
2022-11-12T10:31:32.579Z,101817.81
2022-11-12T10:34:16.174Z,101819.16
2022-11-12T10:36:49.618Z,101815.34
2022-11-12T10:39:35.361Z,101817.00
2022-11-12T10:42:06.029Z,101810.66
2022-11-12T10:44:35.539Z,101820.06
2022-11-12T10:47:26.775Z,101830.22
2022-11-12T10:50:06.927Z,101827.41
2022-11-12T10:52:36.025Z,101814.59
2022-11-12T10:55:08.426Z,101803.59
2022-11-12T10:57:36.591Z,101805.31
2022-11-12T11:00:17.690Z,101797.66
2022-11-12T11:02:51.326Z,101805.81
2022-11-12T11:05:32.077Z,101797.34
2022-11-12T11:08:01.647Z,101787.66
2022-11-12T11:10:32.121Z,101795.34
2022-11-12T11:13:21.133Z,101793.56
2022-11-12T11:16:02.037Z,101785.13
2022-11-12T11:18:32.404Z,101794.91
2022-11-12T11:21:10.215Z,101793.25
2022-11-12T11:23:45.316Z,101781.41
2022-11-12T11:26:29.311Z,101779.09
2022-11-12T11:29:09.937Z,101790.50
2022-11-12T11:31:45.502Z,101786.44
2022-11-12T11:34:26.651Z,101780.94
2022-11-12T11:37:09.480Z,101779.09
2022-11-12T11:39:46.527Z,101788.41
2022-11-12T11:42:34.877Z,101790.09
2022-11-12T11:45:13.026Z,101775.94
2022-11-12T11:48:01.113Z,101784.88
2022-11-12T11:50:32.258Z,101779.25
2022-11-12T11:53:16.496Z,101777.41
2022-11-12T11:55:54.838Z,101765.47
2022-11-12T11:59:03.632Z,101771.91
2022-11-12T12:01:43.032Z,101767.13
2022-11-12T12:04:36.236Z,101766.09
2022-11-12T12:07:14.458Z,101766.59
2022-11-12T12:09:49.362Z,101755.34
2022-11-12T12:12:35.268Z,101748.81
2022-11-12T12:15:20.178Z,101755.16
2022-11-12T12:17:59.034Z,101751.31
2022-11-12T12:20:36.044Z,101743.56
2022-11-12T12:23:06.445Z,101739.91
2022-11-12T12:25:39.333Z,101734.25
2022-11-12T12:28:15.628Z,101726.75
2022-11-12T12:30:50.584Z,101722.50
2022-11-12T12:33:30.020Z,101721.19
2022-11-12T12:36:03.499Z,101726.50
2022-11-12T12:38:39.319Z,101720.66
2022-11-12T12:41:16.130Z,101720.31
2022-11-12T12:43:48.425Z,101718.81
2022-11-12T12:46:21.553Z,101714.72
2022-11-12T12:48:52.197Z,101706.22
2022-11-12T12:51:23.090Z,101696.94
2022-11-12T12:53:51.159Z,101700.41
2022-11-12T12:56:49.596Z,101684.13
2022-11-12T12:59:25.397Z,101676.63
2022-11-12T13:02:00.102Z,101680.94
2022-11-12T13:04:54.374Z,101672.16
2022-11-12T13:07:42.694Z,101668.81
2022-11-12T13:10:53.869Z,101656.84
2022-11-12T13:13:34.795Z,101654.28
2022-11-12T13:16:03.645Z,101644.13
2022-11-12T13:19:00.862Z,101645.41
2022-11-12T13:21:29.651Z,101656.94
2022-11-12T13:24:11.193Z,101650.59
2022-11-12T13:26:52.656Z,101652.38
2022-11-12T13:29:45.256Z,101642.06
2022-11-12T13:32:34.998Z,101642.72
2022-11-12T13:35:22.501Z,101638.88
2022-11-12T13:37:53.385Z,101635.03
2022-11-12T13:40:38.969Z,101629.59
2022-11-12T13:43:13.680Z,101622.56
2022-11-12T13:45:46.542Z,101621.09
2022-11-12T13:48:18.856Z,101621.63
2022-11-12T13:50:53.298Z,101623.69
2022-11-12T13:53:25.405Z,101631.34
2022-11-12T13:55:56.033Z,101626.09
2022-11-12T13:58:30.303Z,101633.44
2022-11-12T14:01:01.290Z,101635.09
2022-11-12T14:03:34.126Z,101641.59
2022-11-12T14:06:06.950Z,101626.00
2022-11-12T14:09:07.140Z,101621.81
2022-11-12T14:11:59.579Z,101606.88
2022-11-12T14:14:38.787Z,101587.19
2022-11-12T14:17:26.412Z,101581.34
2022-11-12T14:20:26.290Z,101580.69
2022-11-12T14:22:55.613Z,101565.56
2022-11-12T14:25:26.448Z,101564.41
2022-11-12T14:27:57.018Z,101557.59
2022-11-12T14:30:27.360Z,101555.81
2022-11-12T14:32:59.949Z,101553.50
2022-11-12T14:35:34.170Z,101545.41
2022-11-12T14:38:11.485Z,101536.84
2022-11-12T14:40:45.717Z,101527.59
2022-11-12T14:43:27.857Z,101523.97
2022-11-12T14:45:57.625Z,101509.34
2022-11-12T14:48:26.141Z,101509.72
2022-11-12T14:51:01.057Z,101500.41
2022-11-12T14:53:33.755Z,101476.53
2022-11-12T14:56:05.291Z,101485.50
2022-11-12T14:58:35.243Z,101476.06
2022-11-12T15:01:47.800Z,101465.03
2022-11-12T15:04:20.587Z,101456.84
2022-11-12T15:06:54.600Z,101452.38
2022-11-12T15:09:34.946Z,101452.84
2022-11-12T15:12:05.542Z,101461.63
2022-11-12T15:14:36.059Z,101466.28
2022-11-12T15:17:05.734Z,101460.03
2022-11-12T15:19:34.534Z,101462.22
2022-11-12T15:22:05.117Z,101469.66
2022-11-12T15:24:34.658Z,101468.63
2022-11-12T15:27:23.794Z,101462.69
2022-11-12T15:30:13.931Z,101474.66
2022-11-12T15:32:42.195Z,101463.41
2022-11-12T15:35:22.433Z,101463.03
2022-11-12T15:37:51.304Z,101465.69
2022-11-12T15:40:21.335Z,101475.97
2022-11-12T15:42:49.695Z,101473.94
2022-11-12T15:45:21.503Z,101465.97
2022-11-12T15:47:49.748Z,101468.28
2022-11-12T15:50:20.293Z,101458.31
2022-11-12T15:52:48.464Z,101455.03
2022-11-12T15:55:18.068Z,101461.34
2022-11-12T15:57:50.073Z,101456.72
2022-11-12T16:00:21.635Z,101456.44
2022-11-12T16:02:56.457Z,101470.06
2022-11-12T16:05:24.599Z,101480.00
2022-11-12T16:07:52.808Z,101479.47
2022-11-12T16:10:21.432Z,101477.03
2022-11-12T16:12:49.735Z,101473.25
2022-11-12T16:15:22.528Z,101466.94
2022-11-12T16:17:50.738Z,101487.97
2022-11-12T16:20:22.379Z,101475.06
2022-11-12T16:22:51.127Z,101484.19
2022-11-12T16:25:19.556Z,101497.50
2022-11-12T16:27:52.865Z,101491.22
2022-11-12T16:30:26.560Z,101485.72
2022-11-12T16:32:54.736Z,101486.22
2022-11-12T16:35:22.955Z,101485.03
2022-11-12T16:37:51.535Z,101491.69
2022-11-12T16:40:22.037Z,101494.31
2022-11-12T16:42:50.488Z,101498.84
2022-11-12T16:45:20.561Z,101500.34
2022-11-12T16:47:52.428Z,101497.34
2022-11-12T16:50:23.486Z,101487.28
2022-11-12T16:52:52.938Z,101505.00
2022-11-12T16:55:22.133Z,101492.75
2022-11-12T16:57:50.287Z,101498.06
2022-11-12T17:00:20.162Z,101495.13
2022-11-12T17:02:53.367Z,101488.97
2022-11-12T17:05:23.879Z,101492.13
2022-11-12T17:07:56.611Z,101492.13
2022-11-12T17:10:25.555Z,101494.63
2022-11-12T17:12:54.171Z,101497.75
2022-11-12T17:15:22.364Z,101495.78
2022-11-12T17:17:54.405Z,101499.94
2022-11-12T17:20:22.483Z,101498.91
2022-11-12T17:22:50.639Z,101501.09
2022-11-12T17:25:18.963Z,101511.69
2022-11-12T17:27:47.163Z,101517.00
2022-11-12T17:30:15.664Z,101514.34
2022-11-12T17:32:43.984Z,101516.00
2022-11-12T17:35:13.493Z,101511.69
2022-11-12T17:37:41.685Z,101516.66
2022-11-12T17:40:10.753Z,101503.22
2022-11-12T17:42:38.958Z,101503.22
2022-11-12T17:45:08.348Z,101487.16
2022-11-12T17:47:40.320Z,101489.13
2022-11-12T17:50:10.012Z,101487.16
2022-11-12T17:52:39.845Z,101495.44
2022-11-12T17:55:08.681Z,101487.31
2022-11-12T17:57:36.784Z,101479.88
2022-11-12T18:00:05.986Z,101488.66
2022-11-12T18:02:34.079Z,101472.94
2022-11-12T18:05:02.281Z,101475.09
2022-11-12T18:07:30.470Z,101476.94
2022-11-12T18:10:00.087Z,101477.59
2022-11-12T18:12:28.709Z,101480.25
2022-11-12T18:14:56.827Z,101472.94
2022-11-12T18:17:25.161Z,101479.34
2022-11-12T18:19:53.534Z,101480.47
2022-11-12T18:22:21.887Z,101463.75
2022-11-12T18:24:50.077Z,101462.41
2022-11-12T18:27:19.684Z,101455.28
2022-11-12T18:29:47.987Z,101460.94
2022-11-12T18:32:16.205Z,101457.28
2022-11-12T18:34:46.194Z,101452.63
2022-11-12T18:37:14.339Z,101449.31
2022-11-12T18:39:42.561Z,101442.34
2022-11-12T18:42:10.676Z,101446.66
2022-11-12T18:44:40.372Z,101449.47
2022-11-12T18:47:08.475Z,101447.31
2022-11-12T18:49:36.678Z,101450.13
2022-11-12T18:52:04.866Z,101445.66
2022-11-12T18:54:33.023Z,101448.47
2022-11-12T18:57:01.239Z,101448.47
2022-11-12T18:59:30.901Z,101434.69
2022-11-12T19:02:00.710Z,101438.81
2022-11-12T19:04:29.272Z,101439.66
2022-11-12T19:06:57.561Z,101438.34
2022-11-12T19:09:25.776Z,101438.53
2022-11-12T19:11:53.992Z,101432.41
2022-11-12T19:14:22.157Z,101432.41
2022-11-12T19:16:50.450Z,101424.94
2022-11-12T19:19:20.004Z,101425.91
2022-11-12T19:21:49.009Z,101426.72
2022-11-12T19:24:17.221Z,101429.38
2022-11-12T19:26:45.513Z,101424.44
2022-11-12T19:29:13.740Z,101418.31
2022-11-12T19:31:42.198Z,101410.69
2022-11-12T19:34:10.609Z,101401.91
2022-11-12T19:36:41.162Z,101399.78
2022-11-12T19:39:09.424Z,101402.78
2022-11-12T19:41:37.647Z,101398.66
2022-11-12T19:44:06.009Z,101396.53
2022-11-12T19:46:34.335Z,101388.94
2022-11-12T19:49:02.493Z,101381.78
2022-11-12T19:51:31.297Z,101378.50
2022-11-12T19:54:00.873Z,101376.19
2022-11-12T19:56:29.438Z,101377.22
2022-11-12T19:58:57.525Z,101374.56
2022-11-12T20:01:25.679Z,101372.91
2022-11-12T20:03:54.343Z,101368.44
2022-11-12T20:06:25.666Z,101370.25
2022-11-12T20:08:54.284Z,101367.63
2022-11-12T20:11:24.121Z,101353.16
2022-11-12T20:13:53.716Z,101349.69
2022-11-12T20:16:25.522Z,101346.50
2022-11-12T20:18:55.725Z,101355.00
2022-11-12T20:21:24.003Z,101349.69
2022-11-12T20:23:52.086Z,101349.88
2022-11-12T20:26:20.382Z,101349.69
2022-11-12T20:28:49.969Z,101355.19
2022-11-12T20:31:20.979Z,101369.78
2022-11-12T20:33:49.938Z,101359.00
2022-11-12T20:36:20.894Z,101361.84
2022-11-12T20:38:50.344Z,101354.69
2022-11-12T20:41:20.263Z,101347.56
2022-11-12T20:43:53.402Z,101351.41
2022-11-12T20:46:21.802Z,101337.50
2022-11-12T20:48:50.200Z,101327.72
2022-11-12T20:51:25.295Z,101322.59
2022-11-12T20:53:59.488Z,101313.84
2022-11-12T20:56:30.321Z,101311.00
2022-11-12T20:59:00.724Z,101310.00
2022-11-12T21:01:30.510Z,101313.84
2022-11-12T21:03:59.431Z,101297.13
2022-11-12T21:06:29.416Z,101292.81
2022-11-12T21:09:00.437Z,101297.13
2022-11-12T21:11:28.831Z,101287.53
2022-11-12T21:13:57.091Z,101300.78
2022-11-12T21:16:26.709Z,101305.06
2022-11-12T21:18:54.910Z,101301.75
2022-11-12T21:21:23.525Z,101298.13
2022-11-12T21:23:54.108Z,101297.28
2022-11-12T21:26:23.688Z,101286.66
2022-11-12T21:28:53.794Z,101278.72
2022-11-12T21:31:23.634Z,101272.44
2022-11-12T21:33:54.318Z,101272.44
2022-11-12T21:36:23.720Z,101268.78
2022-11-12T21:38:51.847Z,101265.13
2022-11-12T21:41:22.020Z,101261.66
2022-11-12T21:43:50.767Z,101257.19
2022-11-12T21:46:20.286Z,101257.00
2022-11-12T21:48:54.878Z,101255.19
2022-11-12T21:51:27.341Z,101246.03
2022-11-12T21:53:56.998Z,101241.38
2022-11-12T21:56:25.748Z,101235.91
2022-11-12T21:58:54.301Z,101245.50
2022-11-12T22:01:25.387Z,101245.97
2022-11-12T22:03:55.044Z,101242.94
2022-11-12T22:06:26.949Z,101246.88
2022-11-12T22:08:56.190Z,101240.59
2022-11-12T22:11:24.673Z,101230.81
2022-11-12T22:13:52.768Z,101238.59
2022-11-12T22:16:23.349Z,101238.25
2022-11-12T22:18:53.710Z,101230.81
2022-11-12T22:21:25.026Z,101228.63
2022-11-12T22:23:53.515Z,101229.63
2022-11-12T22:26:24.575Z,101228.47
2022-11-12T22:28:52.958Z,101229.47
2022-11-12T22:31:22.889Z,101216.84
2022-11-12T22:33:51.501Z,101222.16
2022-11-12T22:36:21.701Z,101217.03
2022-11-12T22:38:52.930Z,101215.56
2022-11-12T22:41:23.030Z,101218.00
2022-11-12T22:43:52.504Z,101218.19
2022-11-12T22:46:22.492Z,101224.69
2022-11-12T22:48:51.147Z,101228.19
2022-11-12T22:51:21.110Z,101225.06
2022-11-12T22:53:54.751Z,101220.91
2022-11-12T22:56:23.341Z,101223.41
2022-11-12T22:58:51.791Z,101220.09
2022-11-12T23:01:21.803Z,101219.75
2022-11-12T23:03:50.818Z,101219.75
2022-11-12T23:06:19.866Z,101207.13
2022-11-12T23:08:48.605Z,101213.44
2022-11-12T23:11:20.587Z,101217.09
2022-11-12T23:13:49.915Z,101226.69
2022-11-12T23:16:21.160Z,101222.41
2022-11-12T23:18:49.538Z,101211.81
2022-11-12T23:21:20.007Z,101223.41
2022-11-12T23:23:48.262Z,101217.44
2022-11-12T23:26:19.711Z,101220.91
2022-11-12T23:28:48.066Z,101220.09
2022-11-12T23:31:18.249Z,101223.56
2022-11-12T23:33:46.914Z,101227.44
2022-11-12T23:36:15.398Z,101215.19
2022-11-12T23:38:44.104Z,101216.81
2022-11-12T23:41:13.919Z,101211.69
2022-11-12T23:43:44.091Z,101217.16
2022-11-12T23:46:13.222Z,101216.53
2022-11-12T23:48:41.703Z,101209.56
2022-11-12T23:51:12.742Z,101205.28
2022-11-12T23:53:41.070Z,101211.78
2022-11-12T23:56:12.967Z,101209.13
2022-11-12T23:58:43.494Z,101211.59
